createdAt,value
2023-01-31T00:01:06.781Z,1.70
2023-01-31T00:03:35.311Z,1.70
2023-01-31T00:06:20.896Z,1.60
2023-01-31T00:08:50.464Z,1.60
2023-01-31T00:11:21.219Z,1.60
2023-01-31T00:13:49.905Z,1.50
2023-01-31T00:16:19.322Z,1.50
2023-01-31T00:18:49.840Z,1.50
2023-01-31T00:21:21.728Z,1.50
2023-01-31T00:23:50.595Z,1.40
2023-01-31T00:26:20.640Z,1.30
2023-01-31T00:28:50.289Z,1.20
2023-01-31T00:31:19.564Z,1.20
2023-01-31T00:33:49.009Z,1.10
2023-01-31T00:36:19.087Z,1.00
2023-01-31T00:38:49.961Z,0.80
2023-01-31T00:41:19.085Z,0.80
2023-01-31T00:43:48.692Z,0.60
2023-01-31T00:46:18.174Z,0.50
2023-01-31T00:48:46.297Z,0.40
2023-01-31T00:51:14.315Z,0.20
2023-01-31T00:53:42.410Z,0.00
2023-01-31T00:56:15.130Z,-0.10
2023-01-31T00:58:43.178Z,-0.20
2023-01-31T01:01:12.755Z,-0.20
2023-01-31T01:03:41.888Z,-0.30
2023-01-31T01:06:10.728Z,-0.40
2023-01-31T01:08:40.378Z,-0.50
2023-01-31T01:11:09.200Z,-0.50
2023-01-31T01:13:38.932Z,-0.60
2023-01-31T01:16:08.482Z,-0.70
2023-01-31T01:18:37.127Z,-0.80
2023-01-31T01:21:10.250Z,-0.90
2023-01-31T01:23:38.838Z,-1.00
2023-01-31T01:26:14.765Z,-1.10
2023-01-31T01:28:44.261Z,-1.20
2023-01-31T01:31:14.335Z,-1.10
2023-01-31T01:33:42.390Z,-1.10
2023-01-31T01:36:13.492Z,-0.90
2023-01-31T01:38:41.976Z,-0.90
2023-01-31T01:41:11.185Z,-0.90
2023-01-31T01:43:45.197Z,-0.90
2023-01-31T01:46:17.283Z,-0.90
2023-01-31T01:48:48.650Z,-0.90
2023-01-31T01:51:19.430Z,-1.00
2023-01-31T01:53:51.123Z,-1.00
2023-01-31T01:56:22.995Z,-1.00
2023-01-31T01:58:58.495Z,-1.00
2023-01-31T02:01:30.004Z,-0.80
2023-01-31T02:03:58.111Z,-0.40
2023-01-31T02:06:26.899Z,-0.40
2023-01-31T02:08:55.942Z,-0.50
2023-01-31T02:11:27.438Z,-0.50
2023-01-31T02:14:02.930Z,-0.60
2023-01-31T02:16:31.213Z,-0.70
2023-01-31T02:18:59.697Z,-0.70
2023-01-31T02:22:09.484Z,-0.90
2023-01-31T02:25:11.701Z,-1.00
2023-01-31T02:28:07.213Z,-1.10
2023-01-31T02:31:04.342Z,-1.20
2023-01-31T02:33:42.206Z,-1.30
2023-01-31T02:36:23.297Z,-1.10
2023-01-31T02:39:00.252Z,-1.00
2023-01-31T02:41:45.193Z,-1.10
2023-01-31T02:44:39.064Z,-1.00
2023-01-31T02:47:16.990Z,-0.70
2023-01-31T02:49:49.828Z,-1.00
2023-01-31T02:52:23.821Z,-0.90
2023-01-31T02:55:18.364Z,-1.00
2023-01-31T02:57:50.071Z,-0.90
2023-01-31T03:00:19.883Z,-0.50
2023-01-31T03:02:48.088Z,-0.40
2023-01-31T03:05:19.708Z,-0.20
2023-01-31T03:07:51.664Z,-0.10
2023-01-31T03:10:46.628Z,0.00
2023-01-31T03:13:36.791Z,-0.10
2023-01-31T03:16:33.391Z,-0.20
2023-01-31T03:19:13.554Z,-0.30
2023-01-31T03:21:47.275Z,-0.20
2023-01-31T03:24:17.244Z,0.00
2023-01-31T03:26:46.003Z,0.10
2023-01-31T03:29:16.750Z,0.10
2023-01-31T03:31:49.957Z,0.10
2023-01-31T03:34:19.186Z,0.10
2023-01-31T03:36:55.962Z,-0.10
2023-01-31T03:39:34.197Z,-0.10
2023-01-31T03:42:09.152Z,-0.20
2023-01-31T03:44:44.599Z,-0.40
2023-01-31T03:47:17.991Z,-0.40
2023-01-31T03:49:47.592Z,-0.50
2023-01-31T03:52:23.252Z,-0.60
2023-01-31T03:54:57.156Z,-0.60
2023-01-31T03:57:30.028Z,-0.60
2023-01-31T04:00:01.089Z,-0.80
2023-01-31T04:02:35.152Z,-1.00
2023-01-31T04:05:08.253Z,-1.00
2023-01-31T04:07:38.696Z,-1.00
2023-01-31T04:10:12.145Z,-1.10
2023-01-31T04:12:40.753Z,-1.30
2023-01-31T04:15:09.908Z,-1.40
2023-01-31T04:17:37.904Z,-1.60
2023-01-31T04:20:08.543Z,-1.70
2023-01-31T04:22:38.111Z,-1.70
2023-01-31T04:25:07.839Z,-1.70
2023-01-31T04:27:35.865Z,-1.70
2023-01-31T04:30:04.077Z,-1.60
2023-01-31T04:32:32.064Z,-1.60
2023-01-31T04:35:02.258Z,-1.70
2023-01-31T04:37:30.585Z,-1.70
2023-01-31T04:39:59.923Z,-1.70
2023-01-31T04:42:28.141Z,-1.50
2023-01-31T04:44:56.127Z,-1.60
2023-01-31T04:47:24.537Z,-1.50
2023-01-31T04:49:52.496Z,-1.70
2023-01-31T04:52:24.283Z,-1.70
2023-01-31T04:54:52.340Z,-1.70
2023-01-31T04:57:21.741Z,-1.80
2023-01-31T04:59:50.292Z,-1.80
2023-01-31T05:02:18.715Z,-1.80
2023-01-31T05:04:47.097Z,-1.60
2023-01-31T05:07:15.107Z,-1.80
2023-01-31T05:09:44.050Z,-1.90
2023-01-31T05:12:12.076Z,-1.90
2023-01-31T05:14:41.497Z,-2.00
2023-01-31T05:17:09.762Z,-2.20
2023-01-31T05:19:37.923Z,-2.30
2023-01-31T05:22:06.361Z,-2.40
2023-01-31T05:24:35.139Z,-2.40
2023-01-31T05:27:03.691Z,-2.50
2023-01-31T05:29:33.636Z,-2.40
2023-01-31T05:32:06.977Z,-2.20
2023-01-31T05:34:35.968Z,-2.30
2023-01-31T05:37:05.061Z,-2.30
2023-01-31T05:39:33.785Z,-2.20
2023-01-31T05:42:02.031Z,-2.10
2023-01-31T05:44:30.088Z,-2.00
2023-01-31T05:46:58.064Z,-1.60
2023-01-31T05:49:27.508Z,-1.70
2023-01-31T05:51:55.454Z,-1.40
2023-01-31T05:54:23.421Z,-1.40
2023-01-31T05:56:51.468Z,-1.00
2023-01-31T05:59:19.481Z,-1.20
2023-01-31T06:01:47.453Z,-1.10
2023-01-31T06:04:15.850Z,-1.10
2023-01-31T06:06:45.817Z,-1.00
2023-01-31T06:09:14.014Z,-0.90
2023-01-31T06:11:42.465Z,-1.00
2023-01-31T06:14:10.687Z,-1.00
2023-01-31T06:16:38.765Z,-0.90
2023-01-31T06:19:08.883Z,-0.90
2023-01-31T06:21:36.880Z,-0.80
2023-01-31T06:24:07.259Z,-0.80
2023-01-31T06:26:35.381Z,-0.90
2023-01-31T06:29:03.391Z,-0.90
2023-01-31T06:31:31.952Z,-0.80
2023-01-31T06:33:59.964Z,-0.80
2023-01-31T06:36:27.973Z,-0.70
2023-01-31T06:38:55.934Z,-0.70
2023-01-31T06:41:25.338Z,-0.70
2023-01-31T06:43:53.311Z,-0.70
2023-01-31T06:46:21.319Z,-0.60
2023-01-31T06:48:49.513Z,-0.60
2023-01-31T06:51:17.574Z,-0.60
2023-01-31T06:53:45.592Z,-0.80
2023-01-31T06:56:13.620Z,-0.80
2023-01-31T06:58:42.929Z,-0.90
2023-01-31T07:01:12.289Z,-1.00
2023-01-31T07:03:49.845Z,-1.00
2023-01-31T07:06:19.817Z,-1.10
2023-01-31T07:08:47.934Z,-1.00
2023-01-31T07:11:15.995Z,-1.00
2023-01-31T07:13:47.771Z,-1.00
2023-01-31T07:16:16.900Z,-1.00
2023-01-31T07:18:44.951Z,-0.80
2023-01-31T07:21:12.951Z,-0.90
2023-01-31T07:23:41.138Z,-0.80
2023-01-31T07:26:09.122Z,-0.70
2023-01-31T07:28:37.547Z,-0.60
2023-01-31T07:31:07.836Z,-0.40
2023-01-31T07:33:35.980Z,-0.30
2023-01-31T07:36:04.672Z,-0.10
2023-01-31T07:38:33.083Z,0.00
2023-01-31T07:41:01.734Z,0.00
2023-01-31T07:43:29.987Z,0.10
2023-01-31T07:45:58.325Z,0.20
2023-01-31T07:48:43.833Z,0.20
2023-01-31T07:51:12.346Z,0.30
2023-01-31T07:53:43.113Z,0.40
2023-01-31T07:56:14.138Z,0.50
2023-01-31T07:58:43.268Z,0.80
2023-01-31T08:01:32.680Z,1.10
2023-01-31T08:04:18.235Z,1.20
2023-01-31T08:06:48.344Z,1.30
2023-01-31T08:09:16.340Z,1.30
2023-01-31T08:11:44.367Z,1.30
2023-01-31T08:14:12.337Z,1.40
2023-01-31T08:16:40.362Z,1.60
2023-01-31T08:19:09.737Z,1.80
2023-01-31T08:21:37.727Z,1.90
2023-01-31T08:24:06.285Z,2.00
2023-01-31T08:26:34.320Z,2.20
2023-01-31T08:29:03.229Z,2.30
2023-01-31T08:31:31.647Z,2.50
2023-01-31T08:33:59.891Z,2.60
2023-01-31T08:36:31.844Z,2.60
2023-01-31T08:39:00.492Z,2.50
2023-01-31T08:41:29.648Z,2.50
2023-01-31T08:44:00.383Z,2.40
2023-01-31T08:46:35.434Z,2.20
2023-01-31T08:49:05.325Z,2.10
2023-01-31T08:51:34.820Z,2.00
2023-01-31T08:54:02.948Z,1.90
2023-01-31T08:56:31.332Z,1.90
2023-01-31T08:58:59.543Z,2.00
2023-01-31T09:01:27.623Z,1.90
2023-01-31T09:03:57.194Z,2.00
2023-01-31T09:06:27.367Z,2.00
2023-01-31T09:08:58.751Z,2.30
2023-01-31T09:11:30.347Z,2.40
2023-01-31T09:13:59.083Z,2.60
2023-01-31T09:16:27.108Z,2.80
2023-01-31T09:18:56.310Z,3.00
2023-01-31T09:21:24.960Z,3.10
2023-01-31T09:23:58.172Z,3.20
2023-01-31T09:26:26.300Z,3.30
2023-01-31T09:28:54.388Z,3.50
2023-01-31T09:31:22.734Z,3.60
2023-01-31T09:33:50.903Z,3.80
2023-01-31T09:36:20.920Z,3.90
2023-01-31T09:38:49.340Z,3.90
2023-01-31T09:41:24.883Z,4.30
2023-01-31T09:43:56.320Z,4.40
2023-01-31T09:46:29.771Z,4.40
2023-01-31T09:49:00.720Z,4.40
2023-01-31T09:51:30.767Z,4.30
2023-01-31T09:53:59.124Z,4.10
2023-01-31T09:56:36.055Z,4.00
2023-01-31T09:59:16.292Z,4.20
2023-01-31T10:01:50.157Z,4.50
2023-01-31T10:04:32.888Z,4.50
2023-01-31T10:07:06.002Z,4.50
2023-01-31T10:09:39.179Z,4.50
2023-01-31T10:12:15.807Z,4.60
2023-01-31T10:14:50.325Z,4.40
2023-01-31T10:17:24.517Z,4.50
2023-01-31T10:19:58.405Z,4.60
2023-01-31T10:22:33.886Z,4.50
2023-01-31T10:25:09.597Z,4.60
2023-01-31T10:27:44.972Z,4.60
2023-01-31T10:30:18.987Z,4.50
2023-01-31T10:32:52.072Z,4.40
2023-01-31T10:35:25.235Z,4.70
2023-01-31T10:37:56.873Z,5.00
2023-01-31T10:40:31.618Z,4.90
2023-01-31T10:43:09.803Z,5.40
2023-01-31T10:45:38.565Z,5.30
2023-01-31T10:48:16.599Z,4.90
2023-01-31T10:50:58.264Z,4.70
2023-01-31T10:53:42.221Z,4.80
2023-01-31T10:56:14.872Z,4.80
2023-01-31T10:58:44.608Z,5.00
2023-01-31T11:01:14.541Z,5.00
2023-01-31T11:03:49.284Z,4.90
2023-01-31T11:06:18.113Z,5.10
2023-01-31T11:08:49.357Z,4.90
2023-01-31T11:11:21.080Z,5.10
2023-01-31T11:14:00.032Z,5.00
2023-01-31T11:16:31.088Z,5.00
2023-01-31T11:19:00.557Z,5.10
2023-01-31T11:21:32.384Z,5.00
2023-01-31T11:24:04.903Z,5.10
2023-01-31T11:26:36.088Z,5.20
2023-01-31T11:29:11.518Z,5.10
2023-01-31T11:31:45.573Z,5.20
2023-01-31T11:34:22.628Z,5.20
2023-01-31T11:36:54.515Z,5.20
2023-01-31T11:39:32.489Z,5.20
2023-01-31T11:42:07.732Z,5.30
2023-01-31T11:44:37.517Z,5.20
2023-01-31T11:47:14.717Z,5.20
2023-01-31T11:49:44.224Z,5.00
2023-01-31T11:52:18.257Z,5.00
2023-01-31T11:54:50.093Z,4.90
2023-01-31T11:57:32.749Z,4.90
2023-01-31T12:00:03.535Z,4.90
2023-01-31T12:02:37.596Z,4.90
2023-01-31T12:05:14.941Z,4.80
2023-01-31T12:07:45.920Z,5.00
2023-01-31T12:10:30.324Z,5.00
2023-01-31T12:13:12.678Z,5.00
2023-01-31T12:15:55.999Z,5.20
2023-01-31T12:18:40.558Z,5.40
2023-01-31T12:21:15.584Z,5.60
2023-01-31T12:23:53.504Z,5.60
2023-01-31T12:26:32.426Z,5.70
2023-01-31T12:29:27.878Z,5.90
2023-01-31T12:32:09.880Z,6.00
2023-01-31T12:35:09.561Z,5.90
2023-01-31T12:37:45.661Z,6.00
2023-01-31T12:40:44.072Z,6.00
2023-01-31T12:43:48.527Z,6.20
2023-01-31T12:46:24.228Z,6.00
2023-01-31T12:49:21.956Z,5.80
2023-01-31T12:52:01.315Z,5.70
2023-01-31T12:54:42.629Z,6.10
2023-01-31T12:57:34.997Z,6.20
2023-01-31T13:00:27.584Z,6.40
2023-01-31T13:03:15.003Z,6.40
2023-01-31T13:05:48.507Z,6.30
2023-01-31T13:08:20.232Z,6.30
2023-01-31T13:10:51.934Z,6.30
2023-01-31T13:13:25.920Z,6.40
2023-01-31T13:15:59.868Z,6.30
2023-01-31T13:18:30.094Z,6.30
2023-01-31T13:21:00.612Z,6.40
2023-01-31T13:23:34.480Z,6.40
2023-01-31T13:26:09.981Z,6.40
2023-01-31T13:28:45.924Z,6.20
2023-01-31T13:31:21.562Z,6.20
2023-01-31T13:33:55.408Z,6.20
2023-01-31T13:36:30.009Z,6.00
2023-01-31T13:39:03.612Z,5.80
2023-01-31T13:41:35.719Z,5.70
2023-01-31T13:44:03.933Z,5.70
2023-01-31T13:46:52.113Z,5.60
2023-01-31T13:49:26.144Z,5.60
2023-01-31T13:51:57.295Z,5.50
2023-01-31T13:54:30.109Z,5.40
2023-01-31T13:57:00.348Z,5.20
2023-01-31T13:59:31.709Z,5.20
2023-01-31T14:02:02.474Z,5.10
2023-01-31T14:04:34.694Z,5.10
2023-01-31T14:07:24.306Z,5.10
2023-01-31T14:10:37.789Z,5.10
2023-01-31T14:13:24.820Z,5.10
2023-01-31T14:15:54.049Z,5.00
2023-01-31T14:18:42.711Z,5.00
2023-01-31T14:21:44.797Z,5.00
2023-01-31T14:24:36.300Z,5.00
2023-01-31T14:27:11.360Z,5.00
2023-01-31T14:29:43.931Z,5.00
2023-01-31T14:32:16.935Z,4.90
2023-01-31T14:34:50.671Z,5.00
2023-01-31T14:37:33.780Z,4.90
2023-01-31T14:40:14.876Z,4.90
2023-01-31T14:42:57.045Z,4.90
2023-01-31T14:45:51.139Z,4.80
2023-01-31T14:48:44.279Z,4.90
2023-01-31T14:51:23.335Z,4.80
2023-01-31T14:54:08.497Z,4.90
2023-01-31T14:56:54.753Z,4.80
2023-01-31T14:59:29.861Z,4.80
2023-01-31T15:02:00.834Z,4.80
2023-01-31T15:04:29.938Z,4.90
2023-01-31T15:06:58.658Z,4.80
2023-01-31T15:09:37.141Z,4.80
2023-01-31T15:12:07.872Z,4.90
2023-01-31T15:14:41.294Z,4.80
2023-01-31T15:17:34.091Z,4.90
2023-01-31T15:20:15.083Z,4.90
2023-01-31T15:22:45.331Z,4.80
2023-01-31T15:25:33.893Z,4.90
2023-01-31T15:28:03.604Z,4.90
2023-01-31T15:30:34.668Z,4.90
2023-01-31T15:33:09.442Z,4.80
2023-01-31T15:35:47.500Z,4.80
2023-01-31T15:38:25.439Z,4.90
2023-01-31T15:41:26.977Z,4.80
2023-01-31T15:44:12.171Z,4.80
2023-01-31T15:46:48.910Z,4.70
2023-01-31T15:49:40.468Z,4.70
2023-01-31T15:52:14.933Z,4.60
2023-01-31T15:54:53.832Z,4.70
2023-01-31T15:57:23.728Z,4.70
2023-01-31T15:59:51.884Z,4.60
2023-01-31T16:02:27.075Z,4.60
2023-01-31T16:04:56.846Z,4.60
2023-01-31T16:07:29.401Z,4.60
2023-01-31T16:09:59.465Z,4.70
2023-01-31T16:12:32.117Z,4.60
2023-01-31T16:15:03.780Z,4.60
2023-01-31T16:17:32.273Z,4.50
2023-01-31T16:20:01.820Z,4.40
2023-01-31T16:22:32.104Z,4.40
2023-01-31T16:25:02.094Z,4.50
2023-01-31T16:27:34.391Z,4.40
2023-01-31T16:30:03.281Z,4.40
2023-01-31T16:32:34.835Z,4.40
2023-01-31T16:35:20.305Z,4.30
2023-01-31T16:38:18.264Z,4.30
2023-01-31T16:40:48.409Z,4.20
2023-01-31T16:43:22.764Z,4.30
2023-01-31T16:45:58.182Z,4.30
2023-01-31T16:48:29.313Z,4.40
2023-01-31T16:51:42.563Z,4.50
2023-01-31T16:54:17.728Z,4.50
2023-01-31T16:56:49.273Z,4.60
2023-01-31T16:59:45.960Z,4.60
2023-01-31T17:02:19.622Z,4.70
2023-01-31T17:04:49.910Z,4.70
2023-01-31T17:07:24.276Z,4.70
2023-01-31T17:10:10.364Z,4.70
2023-01-31T17:12:40.305Z,4.60
2023-01-31T17:15:15.333Z,4.60
2023-01-31T17:17:43.936Z,4.60
2023-01-31T17:20:15.302Z,4.60
2023-01-31T17:23:11.113Z,4.60
2023-01-31T17:25:39.892Z,4.50
2023-01-31T17:28:08.931Z,4.50
2023-01-31T17:30:41.553Z,4.50
2023-01-31T17:33:16.662Z,4.60
2023-01-31T17:35:47.908Z,4.50
2023-01-31T17:38:24.120Z,4.50
2023-01-31T17:41:13.007Z,4.50
2023-01-31T17:43:41.152Z,4.50
2023-01-31T17:46:14.687Z,4.40
2023-01-31T17:48:50.608Z,4.50
2023-01-31T17:51:18.657Z,4.60
2023-01-31T17:53:50.266Z,4.50
2023-01-31T17:56:22.868Z,4.50
2023-01-31T17:58:51.897Z,4.60
2023-01-31T18:01:19.957Z,4.60
2023-01-31T18:03:55.131Z,4.50
2023-01-31T18:06:23.183Z,4.50
2023-01-31T18:08:53.268Z,4.50
2023-01-31T18:11:21.433Z,4.50
2023-01-31T18:13:50.637Z,4.50
2023-01-31T18:16:21.511Z,4.60
2023-01-31T18:18:50.649Z,4.60
2023-01-31T18:21:22.010Z,4.60
2023-01-31T18:23:56.805Z,4.60
2023-01-31T18:26:32.789Z,4.70
2023-01-31T18:29:09.995Z,4.70
2023-01-31T18:31:38.071Z,4.70
2023-01-31T18:34:08.141Z,4.60
2023-01-31T18:36:36.262Z,4.60
2023-01-31T18:39:05.670Z,4.40
2023-01-31T18:41:37.629Z,4.60
2023-01-31T18:44:06.167Z,4.50
2023-01-31T18:46:34.211Z,4.50
2023-01-31T18:49:02.197Z,4.50
2023-01-31T18:51:30.544Z,4.40
2023-01-31T18:53:58.855Z,4.40
2023-01-31T18:56:35.373Z,4.40
2023-01-31T18:59:03.367Z,4.40
2023-01-31T19:01:31.391Z,4.50
2023-01-31T19:03:59.733Z,4.50
2023-01-31T19:06:29.449Z,4.50
2023-01-31T19:08:58.894Z,4.50
2023-01-31T19:11:31.215Z,4.70
2023-01-31T19:14:07.492Z,4.60
2023-01-31T19:16:41.528Z,4.70
2023-01-31T19:19:11.209Z,4.40
2023-01-31T19:21:39.821Z,4.50
2023-01-31T19:24:12.492Z,4.50
2023-01-31T19:26:43.249Z,4.50
2023-01-31T19:29:16.523Z,4.50
2023-01-31T19:31:45.114Z,4.60
2023-01-31T19:34:13.509Z,4.50
2023-01-31T19:36:44.878Z,4.50
2023-01-31T19:39:13.739Z,4.40
2023-01-31T19:41:43.506Z,4.50
2023-01-31T19:44:12.369Z,4.50
2023-01-31T19:46:51.873Z,4.40
2023-01-31T19:49:22.212Z,4.50
2023-01-31T19:51:50.497Z,4.50
2023-01-31T19:54:20.832Z,4.50
2023-01-31T19:56:49.024Z,4.50
2023-01-31T19:59:27.435Z,4.50
2023-01-31T20:01:56.876Z,4.40
2023-01-31T20:04:25.404Z,4.40
2023-01-31T20:06:54.014Z,4.40
2023-01-31T20:09:22.203Z,4.50
2023-01-31T20:11:51.109Z,4.40
2023-01-31T20:14:21.334Z,4.40
2023-01-31T20:16:49.456Z,4.50
2023-01-31T20:19:22.434Z,4.40
2023-01-31T20:21:50.788Z,4.50
2023-01-31T20:24:19.987Z,4.50
2023-01-31T20:26:48.022Z,4.50
2023-01-31T20:29:26.123Z,4.50
2023-01-31T20:31:54.418Z,4.40
2023-01-31T20:34:24.802Z,4.40
2023-01-31T20:36:52.822Z,4.40
2023-01-31T20:39:21.956Z,4.50
2023-01-31T20:41:49.994Z,4.40
2023-01-31T20:44:18.888Z,4.30
2023-01-31T20:46:47.507Z,4.50
2023-01-31T20:49:19.676Z,4.60
2023-01-31T20:52:03.633Z,4.70
2023-01-31T20:54:39.800Z,4.70
2023-01-31T20:57:07.879Z,4.60
2023-01-31T20:59:35.854Z,4.60
2023-01-31T21:02:03.819Z,4.60
2023-01-31T21:04:32.061Z,4.60
2023-01-31T21:07:02.854Z,4.50
2023-01-31T21:09:39.536Z,4.60
2023-01-31T21:12:08.186Z,4.70
2023-01-31T21:14:36.448Z,4.70
2023-01-31T21:17:05.154Z,4.70
2023-01-31T21:19:33.167Z,4.70
2023-01-31T21:22:01.220Z,4.70
2023-01-31T21:24:43.982Z,4.80
2023-01-31T21:27:12.444Z,4.80
2023-01-31T21:29:40.874Z,4.90
2023-01-31T21:32:09.303Z,4.70
2023-01-31T21:34:37.776Z,4.70
2023-01-31T21:37:17.659Z,4.70
2023-01-31T21:39:48.866Z,4.70
2023-01-31T21:42:19.688Z,4.70
2023-01-31T21:44:52.580Z,4.70
2023-01-31T21:47:20.659Z,4.70
2023-01-31T21:49:48.640Z,4.80
2023-01-31T21:52:17.786Z,4.70
2023-01-31T21:54:48.245Z,4.70
2023-01-31T21:57:16.324Z,4.70
2023-01-31T21:59:45.507Z,4.70
2023-01-31T22:02:14.202Z,4.80
2023-01-31T22:04:42.195Z,4.80
2023-01-31T22:07:10.895Z,4.80
2023-01-31T22:09:38.997Z,4.80
2023-01-31T22:12:08.667Z,4.90
2023-01-31T22:14:44.727Z,4.80
2023-01-31T22:17:12.737Z,4.80
2023-01-31T22:19:41.205Z,4.70
2023-01-31T22:22:09.674Z,4.70
2023-01-31T22:24:37.706Z,4.70
2023-01-31T22:27:05.818Z,4.90
2023-01-31T22:29:38.786Z,4.70
2023-01-31T22:32:22.256Z,4.70
2023-01-31T22:35:18.498Z,4.70
2023-01-31T22:37:49.209Z,4.70
2023-01-31T22:40:24.726Z,4.70
2023-01-31T22:43:03.433Z,4.80
2023-01-31T22:45:49.874Z,4.70
2023-01-31T22:48:22.900Z,4.70
2023-01-31T22:51:03.278Z,4.70
2023-01-31T22:53:39.923Z,4.60
2023-01-31T22:56:38.176Z,4.60
2023-01-31T22:59:07.094Z,4.60
2023-01-31T23:01:40.733Z,4.70
2023-01-31T23:04:11.483Z,4.60
2023-01-31T23:06:39.647Z,5.00
2023-01-31T23:09:09.026Z,4.60
2023-01-31T23:11:37.662Z,4.60
2023-01-31T23:14:05.980Z,4.70
2023-01-31T23:16:47.851Z,4.70
2023-01-31T23:19:17.502Z,4.80
2023-01-31T23:21:45.603Z,4.70
2023-01-31T23:24:19.069Z,4.90
2023-01-31T23:26:49.909Z,4.70
2023-01-31T23:29:17.962Z,4.60
2023-01-31T23:31:49.870Z,4.60
2023-01-31T23:34:34.470Z,4.60
2023-01-31T23:37:02.665Z,4.60
2023-01-31T23:39:30.639Z,4.50
2023-01-31T23:41:58.685Z,4.50
2023-01-31T23:44:26.875Z,4.50
2023-01-31T23:46:54.884Z,4.50
2023-01-31T23:49:22.903Z,4.50
2023-01-31T23:51:52.324Z,4.50
2023-01-31T23:54:20.341Z,4.50
2023-01-31T23:56:48.715Z,4.40
2023-01-31T23:59:19.096Z,4.50
